createdAt,value
2023-01-21T00:00:44.118Z,98365.84
2023-01-21T00:05:53.336Z,98359.73
2023-01-21T00:11:05.031Z,98361.73
2023-01-21T00:16:12.230Z,98361.58
2023-01-21T00:21:14.908Z,98368.50
2023-01-21T00:26:17.353Z,98364.60
2023-01-21T00:31:20.489Z,98360.39
2023-01-21T00:36:34.088Z,98363.02
2023-01-21T00:41:37.916Z,98369.80
2023-01-21T00:46:40.633Z,98364.77
2023-01-21T00:51:43.678Z,98367.20
2023-01-21T00:56:46.373Z,98371.65
2023-01-21T01:01:49.092Z,98372.63
2023-01-21T01:06:52.131Z,98375.64
2023-01-21T01:11:54.690Z,98376.20
2023-01-21T01:16:57.079Z,98377.98
2023-01-21T01:21:59.431Z,98384.64
2023-01-21T01:27:02.360Z,98382.84
2023-01-21T01:32:09.633Z,98388.13
2023-01-21T01:37:12.243Z,98393.71
2023-01-21T01:42:16.272Z,98394.06
2023-01-21T01:47:20.314Z,98396.34
2023-01-21T01:52:23.263Z,98399.58
2023-01-21T01:57:40.020Z,98396.51
2023-01-21T02:03:09.590Z,98392.60
2023-01-21T02:08:15.480Z,98389.63
2023-01-21T02:13:18.151Z,98392.13
2023-01-21T02:18:48.616Z,98393.93
2023-01-21T02:23:57.314Z,98388.73
2023-01-21T02:29:52.660Z,98383.04
2023-01-21T02:35:05.658Z,98385.52
2023-01-21T02:40:25.465Z,98380.69
2023-01-21T02:45:39.386Z,98384.43
2023-01-21T02:50:49.920Z,98387.55
2023-01-21T02:55:53.611Z,98388.58
2023-01-21T03:01:24.581Z,98381.27
2023-01-21T03:06:41.425Z,98380.00
2023-01-21T03:11:54.108Z,98383.98
2023-01-21T03:17:32.752Z,98382.52
2023-01-21T03:22:37.211Z,98382.80
2023-01-21T03:27:43.893Z,98382.75
2023-01-21T03:32:51.839Z,98379.83
2023-01-21T03:38:00.918Z,98377.15
2023-01-21T03:43:04.194Z,98374.84
2023-01-21T03:48:16.479Z,98377.07
2023-01-21T03:53:22.406Z,98377.40
2023-01-21T03:58:28.073Z,98384.87
2023-01-21T04:03:33.006Z,98390.95
2023-01-21T04:08:35.490Z,98396.50
2023-01-21T04:13:40.122Z,98393.60
2023-01-21T04:18:57.266Z,98394.52
2023-01-21T04:23:59.578Z,98398.81
2023-01-21T04:29:02.089Z,98402.16
2023-01-21T04:34:04.568Z,98392.36
2023-01-21T04:39:11.530Z,98382.55
2023-01-21T04:44:14.299Z,98383.17
2023-01-21T04:49:16.580Z,98382.75
2023-01-21T04:54:19.526Z,98384.63
2023-01-21T04:59:22.149Z,98383.16
2023-01-21T05:04:24.085Z,98385.54
2023-01-21T05:09:26.726Z,98380.15
2023-01-21T05:14:29.303Z,98382.63
2023-01-21T05:19:31.378Z,98391.60
2023-01-21T05:24:33.354Z,98389.60
2023-01-21T05:29:35.413Z,98392.64
2023-01-21T05:34:38.178Z,98393.91
2023-01-21T05:39:40.528Z,98394.17
2023-01-21T05:44:42.646Z,98392.77
2023-01-21T05:49:45.459Z,98395.98
2023-01-21T05:55:01.033Z,98395.21
2023-01-21T06:00:05.549Z,98390.59
2023-01-21T06:05:08.291Z,98389.58
2023-01-21T06:10:11.101Z,98382.98
2023-01-21T06:15:14.142Z,98386.10
2023-01-21T06:20:17.556Z,98380.58
2023-01-21T06:25:20.004Z,98381.81
2023-01-21T06:30:24.016Z,98381.31
2023-01-21T06:35:26.376Z,98384.02
2023-01-21T06:40:28.696Z,98380.95
2023-01-21T06:45:31.335Z,98386.81
2023-01-21T06:50:33.294Z,98395.48
2023-01-21T06:55:35.610Z,98400.07
2023-01-21T07:00:38.089Z,98405.27
2023-01-21T07:05:40.818Z,98414.13
2023-01-21T07:10:43.091Z,98418.21
2023-01-21T07:15:46.191Z,98417.54
2023-01-21T07:20:48.289Z,98423.23
2023-01-21T07:25:50.565Z,98428.05
2023-01-21T07:30:53.560Z,98432.02
2023-01-21T07:35:56.036Z,98435.83
2023-01-21T07:40:58.175Z,98431.20
2023-01-21T07:46:00.837Z,98432.55
2023-01-21T07:51:03.615Z,98434.77
2023-01-21T07:56:10.027Z,98435.14
2023-01-21T08:01:13.646Z,98439.11
2023-01-21T08:06:16.542Z,98440.33
2023-01-21T08:11:19.505Z,98444.88
2023-01-21T08:16:24.986Z,98454.21
2023-01-21T08:21:28.004Z,98457.16
2023-01-21T08:26:30.214Z,98458.24
2023-01-21T08:31:40.062Z,98456.16
2023-01-21T08:36:47.596Z,98461.38
2023-01-21T08:41:55.008Z,98458.57
2023-01-21T08:46:56.997Z,98467.19
2023-01-21T08:51:59.805Z,98470.98
2023-01-21T08:57:04.672Z,98470.88
2023-01-21T09:02:11.692Z,98471.48
2023-01-21T09:07:17.735Z,98470.81
2023-01-21T09:12:20.072Z,98473.02
2023-01-21T09:17:26.296Z,98476.54
2023-01-21T09:22:28.706Z,98478.77
2023-01-21T09:27:31.502Z,98481.17
2023-01-21T09:32:37.290Z,98485.23
2023-01-21T09:37:40.009Z,98494.35
2023-01-21T09:42:42.843Z,98492.52
2023-01-21T09:47:50.065Z,98494.02
2023-01-21T09:52:59.505Z,98498.33
2023-01-21T09:58:08.052Z,98498.06
2023-01-21T10:03:22.777Z,98505.48
2023-01-21T10:08:35.201Z,98503.41
2023-01-21T10:13:40.181Z,98503.29
2023-01-21T10:18:48.705Z,98496.71
2023-01-21T10:24:04.213Z,98498.14
2023-01-21T10:29:06.752Z,98494.25
2023-01-21T10:34:18.074Z,98497.15
2023-01-21T10:39:30.568Z,98495.57
2023-01-21T10:44:51.221Z,98493.52
2023-01-21T10:50:25.151Z,98488.50
2023-01-21T10:56:00.246Z,98483.90
2023-01-21T11:01:06.863Z,98487.19
2023-01-21T11:06:13.641Z,98490.45
2023-01-21T11:11:27.006Z,98489.05
2023-01-21T11:16:45.962Z,98486.98
2023-01-21T11:22:16.325Z,98484.73
2023-01-21T11:27:40.933Z,98481.75
2023-01-21T11:32:43.155Z,98472.65
2023-01-21T11:37:46.274Z,98472.00
2023-01-21T11:42:54.624Z,98468.00
2023-01-21T11:47:58.449Z,98475.10
2023-01-21T11:53:06.822Z,98481.20
2023-01-21T11:58:24.200Z,98484.34
2023-01-21T12:03:35.363Z,98476.78
2023-01-21T12:08:38.773Z,98478.45
2023-01-21T12:13:54.350Z,98476.63
2023-01-21T12:19:18.483Z,98471.23
2023-01-21T12:24:47.847Z,98475.84
2023-01-21T12:30:07.992Z,98478.27
2023-01-21T12:35:32.180Z,98482.19
2023-01-21T12:40:52.324Z,98480.70
2023-01-21T12:46:00.423Z,98483.39
2023-01-21T12:51:33.208Z,98483.14
2023-01-21T12:56:43.515Z,98491.27
2023-01-21T13:01:48.495Z,98493.64
2023-01-21T13:06:56.397Z,98501.34
2023-01-21T13:12:06.500Z,98505.14
2023-01-21T13:17:19.123Z,98517.51
2023-01-21T13:23:02.628Z,98527.70
2023-01-21T13:28:26.120Z,98532.20
2023-01-21T13:33:44.384Z,98547.13
2023-01-21T13:39:34.291Z,98557.71
2023-01-21T13:44:45.583Z,98563.50
2023-01-21T13:50:06.612Z,98573.03
2023-01-21T13:55:26.134Z,98584.48
2023-01-21T14:00:34.318Z,98589.73
2023-01-21T14:05:46.144Z,98593.88
2023-01-21T14:11:08.006Z,98592.92
2023-01-21T14:16:34.776Z,98597.87
2023-01-21T14:21:54.853Z,98600.85
2023-01-21T14:27:19.238Z,98600.88
2023-01-21T14:32:44.183Z,98610.20
2023-01-21T14:38:20.750Z,98617.10
2023-01-21T14:43:32.677Z,98623.09
2023-01-21T14:48:35.713Z,98628.77
2023-01-21T14:53:46.556Z,98635.79
2023-01-21T14:59:13.552Z,98633.68
2023-01-21T15:04:23.983Z,98633.84
2023-01-21T15:09:51.809Z,98646.62
2023-01-21T15:14:59.943Z,98659.92
2023-01-21T15:20:44.065Z,98663.02
2023-01-21T15:26:06.161Z,98673.89
2023-01-21T15:31:11.378Z,98675.63
2023-01-21T15:36:22.246Z,98679.83
2023-01-21T15:41:24.669Z,98689.21
2023-01-21T15:47:14.270Z,98703.30
2023-01-21T15:52:24.549Z,98713.32
2023-01-21T15:57:49.609Z,98726.90
2023-01-21T16:03:02.481Z,98740.93
2023-01-21T16:08:22.068Z,98749.68
2023-01-21T16:13:33.628Z,98753.50
2023-01-21T16:18:39.053Z,98756.59
2023-01-21T16:23:43.119Z,98765.38
2023-01-21T16:28:49.812Z,98769.86
2023-01-21T16:33:53.790Z,98772.08
2023-01-21T16:39:06.699Z,98779.27
2023-01-21T16:44:15.638Z,98787.90
2023-01-21T16:49:20.074Z,98793.88
2023-01-21T16:54:32.690Z,98794.32
2023-01-21T16:59:39.072Z,98795.70
2023-01-21T17:04:41.421Z,98798.98
2023-01-21T17:09:44.332Z,98797.27
2023-01-21T17:14:46.576Z,98801.74
2023-01-21T17:19:50.984Z,98809.86
2023-01-21T17:25:02.034Z,98811.59
2023-01-21T17:30:29.601Z,98811.11
2023-01-21T17:35:49.078Z,98824.14
2023-01-21T17:41:08.325Z,98832.39
2023-01-21T17:46:14.214Z,98847.75
2023-01-21T17:51:20.525Z,98856.05
2023-01-21T17:56:51.623Z,98860.77
2023-01-21T18:01:58.540Z,98867.02
2023-01-21T18:07:15.575Z,98871.94
2023-01-21T18:12:19.603Z,98883.05
2023-01-21T18:17:28.558Z,98894.48
2023-01-21T18:22:32.463Z,98902.98
2023-01-21T18:27:35.889Z,98913.80
2023-01-21T18:32:40.623Z,98934.30
2023-01-21T18:37:44.969Z,98941.02
2023-01-21T18:42:52.886Z,98940.51
2023-01-21T18:47:57.442Z,98949.63
2023-01-21T18:53:00.660Z,98951.67
2023-01-21T18:58:07.648Z,98953.39
2023-01-21T19:03:15.832Z,98958.60
2023-01-21T19:08:23.372Z,98958.48
2023-01-21T19:13:25.786Z,98961.09
2023-01-21T19:18:28.137Z,98961.00
2023-01-21T19:23:30.582Z,98974.23
2023-01-21T19:28:34.482Z,98982.06
2023-01-21T19:33:37.624Z,98977.52
2023-01-21T19:38:43.216Z,98978.81
2023-01-21T19:43:46.499Z,98976.09
2023-01-21T19:48:50.549Z,98979.80
2023-01-21T19:53:53.016Z,98996.88
2023-01-21T19:58:56.103Z,99006.46
2023-01-21T20:04:01.251Z,99012.18
2023-01-21T20:09:04.659Z,99007.40
2023-01-21T20:14:07.626Z,99016.60
2023-01-21T20:19:14.800Z,99018.98
2023-01-21T20:24:21.192Z,99029.88
2023-01-21T20:29:23.452Z,99041.77
2023-01-21T20:34:28.270Z,99046.15
2023-01-21T20:39:31.309Z,99049.96
2023-01-21T20:44:33.956Z,99056.70
2023-01-21T20:49:35.993Z,99068.78
2023-01-21T20:54:39.148Z,99080.69
2023-01-21T20:59:41.767Z,99083.52
2023-01-21T21:04:45.110Z,99087.58
2023-01-21T21:09:47.248Z,99096.90
2023-01-21T21:14:49.893Z,99099.10
2023-01-21T21:19:51.936Z,99105.14
2023-01-21T21:24:55.939Z,99113.61
2023-01-21T21:29:59.442Z,99110.48
2023-01-21T21:35:05.129Z,99116.55
2023-01-21T21:40:09.374Z,99127.05
2023-01-21T21:45:11.689Z,99131.05
2023-01-21T21:50:14.638Z,99125.25
2023-01-21T21:55:19.680Z,99135.55
2023-01-21T22:00:22.213Z,99140.66
2023-01-21T22:05:25.065Z,99143.42
2023-01-21T22:10:31.585Z,99145.88
2023-01-21T22:15:34.261Z,99150.98
2023-01-21T22:20:36.222Z,99146.27
2023-01-21T22:25:38.350Z,99147.78
2023-01-21T22:30:40.801Z,99144.46
2023-01-21T22:35:45.314Z,99144.02
2023-01-21T22:40:55.528Z,99148.30
2023-01-21T22:45:59.348Z,99154.32
2023-01-21T22:51:15.660Z,99149.61
2023-01-21T22:56:25.399Z,99156.43
2023-01-21T23:01:34.122Z,99154.52
2023-01-21T23:06:37.839Z,99161.48
2023-01-21T23:11:41.599Z,99159.95
2023-01-21T23:16:43.630Z,99163.50
2023-01-21T23:21:45.887Z,99165.33
2023-01-21T23:26:47.986Z,99164.46
2023-01-21T23:31:51.875Z,99161.88
2023-01-21T23:36:54.324Z,99172.67
2023-01-21T23:41:56.533Z,99173.92
2023-01-21T23:46:59.130Z,99171.15
2023-01-21T23:52:12.618Z,99173.49
2023-01-21T23:57:15.035Z,99182.36
